sensor_id;sensor_type;location;lat;lon;timestamp;temperature;humidity
19252;DHT22;9760;50.944;5.304;2023-04-03T00:01:12;3.60;99.90
19252;DHT22;9760;50.944;5.304;2023-04-03T00:03:38;3.60;99.90
19252;DHT22;9760;50.944;5.304;2023-04-03T00:06:05;3.70;99.90
19252;DHT22;9760;50.944;5.304;2023-04-03T00:08:32;3.60;99.90
19252;DHT22;9760;50.944;5.304;2023-04-03T00:10:59;3.50;99.90
19252;DHT22;9760;50.944;5.304;2023-04-03T00:13:24;3.50;99.90
19252;DHT22;9760;50.944;5.304;2023-04-03T00:15:51;3.50;99.90
19252;DHT22;9760;50.944;5.304;2023-04-03T00:18:16;3.50;99.90
19252;DHT22;9760;50.944;5.304;2023-04-03T00:20:43;3.50;99.90
19252;DHT22;9760;50.944;5.304;2023-04-03T00:23:08;3.50;99.90
19252;DHT22;9760;50.944;5.304;2023-04-03T00:25:34;3.50;99.90
19252;DHT22;9760;50.944;5.304;2023-04-03T00:28:00;3.40;99.90
19252;DHT22;9760;50.944;5.304;2023-04-03T00:30:27;3.40;99.90
19252;DHT22;9760;50.944;5.304;2023-04-03T00:32:53;3.30;99.90
19252;DHT22;9760;50.944;5.304;2023-04-03T00:35:20;3.30;99.90
19252;DHT22;9760;50.944;5.304;2023-04-03T00:37:46;3.30;99.90
19252;DHT22;9760;50.944;5.304;2023-04-03T00:40:13;3.30;99.90
19252;DHT22;9760;50.944;5.304;2023-04-03T00:42:41;3.20;99.90
19252;DHT22;9760;50.944;5.304;2023-04-03T00:47:36;3.20;99.90
19252;DHT22;9760;50.944;5.304;2023-04-03T00:50:04;3.20;99.90
19252;DHT22;9760;50.944;5.304;2023-04-03T00:52:30;3.10;99.90
19252;DHT22;9760;50.944;5.304;2023-04-03T00:54:59;3.10;99.90
19252;DHT22;9760;50.944;5.304;2023-04-03T00:57:27;3.00;99.90
19252;DHT22;9760;50.944;5.304;2023-04-03T00:59:57;3.00;99.90
19252;DHT22;9760;50.944;5.304;2023-04-03T01:02:24;3.00;99.90
19252;DHT22;9760;50.944;5.304;2023-04-03T01:04:51;3.00;99.90
19252;DHT22;9760;50.944;5.304;2023-04-03T01:07:26;3.00;99.90
19252;DHT22;9760;50.944;5.304;2023-04-03T01:09:58;3.00;99.90
19252;DHT22;9760;50.944;5.304;2023-04-03T01:12:25;2.90;99.90
19252;DHT22;9760;50.944;5.304;2023-04-03T01:14:57;2.90;99.90
19252;DHT22;9760;50.944;5.304;2023-04-03T01:22:58;2.70;99.90
19252;DHT22;9760;50.944;5.304;2023-04-03T01:25:25;2.60;99.90
19252;DHT22;9760;50.944;5.304;2023-04-03T01:27:51;2.50;99.90
19252;DHT22;9760;50.944;5.304;2023-04-03T01:30:19;2.50;99.90
19252;DHT22;9760;50.944;5.304;2023-04-03T01:32:45;2.50;99.90
19252;DHT22;9760;50.944;5.304;2023-04-03T01:35:12;2.50;99.90
19252;DHT22;9760;50.944;5.304;2023-04-03T01:37:37;2.50;99.90
19252;DHT22;9760;50.944;5.304;2023-04-03T01:40:04;2.60;99.90
19252;DHT22;9760;50.944;5.304;2023-04-03T01:42:30;2.30;99.90
19252;DHT22;9760;50.944;5.304;2023-04-03T01:44:56;2.20;99.90
19252;DHT22;9760;50.944;5.304;2023-04-03T01:47:22;2.10;99.90
19252;DHT22;9760;50.944;5.304;2023-04-03T01:49:48;2.10;99.90
19252;DHT22;9760;50.944;5.304;2023-04-03T01:52:13;2.00;99.90
19252;DHT22;9760;50.944;5.304;2023-04-03T01:54:39;2.10;99.90
19252;DHT22;9760;50.944;5.304;2023-04-03T01:57:05;2.20;99.90
19252;DHT22;9760;50.944;5.304;2023-04-03T01:59:30;2.30;99.90
19252;DHT22;9760;50.944;5.304;2023-04-03T02:01:56;2.30;99.90
19252;DHT22;9760;50.944;5.304;2023-04-03T02:04:22;2.20;99.90
19252;DHT22;9760;50.944;5.304;2023-04-03T02:06:48;2.30;99.90
19252;DHT22;9760;50.944;5.304;2023-04-03T02:09:14;2.30;99.90
19252;DHT22;9760;50.944;5.304;2023-04-03T02:11:40;2.30;99.90
19252;DHT22;9760;50.944;5.304;2023-04-03T02:14:06;2.30;99.90
19252;DHT22;9760;50.944;5.304;2023-04-03T02:16:31;2.30;99.90
19252;DHT22;9760;50.944;5.304;2023-04-03T02:18:57;2.30;99.90
19252;DHT22;9760;50.944;5.304;2023-04-03T02:21:23;2.30;99.90
19252;DHT22;9760;50.944;5.304;2023-04-03T02:23:49;2.30;99.90
19252;DHT22;9760;50.944;5.304;2023-04-03T02:26:15;2.30;99.90
19252;DHT22;9760;50.944;5.304;2023-04-03T02:28:41;2.20;99.90
19252;DHT22;9760;50.944;5.304;2023-04-03T02:31:07;2.20;99.90
19252;DHT22;9760;50.944;5.304;2023-04-03T02:33:34;2.20;99.90
19252;DHT22;9760;50.944;5.304;2023-04-03T02:36:02;2.10;99.90
19252;DHT22;9760;50.944;5.304;2023-04-03T02:38:28;2.10;99.90
19252;DHT22;9760;50.944;5.304;2023-04-03T02:40:59;2.00;99.90
19252;DHT22;9760;50.944;5.304;2023-04-03T02:43:24;2.00;99.90
19252;DHT22;9760;50.944;5.304;2023-04-03T02:45:50;2.00;99.90
19252;DHT22;9760;50.944;5.304;2023-04-03T02:48:15;1.90;99.90
19252;DHT22;9760;50.944;5.304;2023-04-03T02:50:42;1.90;99.90
19252;DHT22;9760;50.944;5.304;2023-04-03T02:53:07;1.80;99.90
19252;DHT22;9760;50.944;5.304;2023-04-03T02:55:33;1.70;99.90
19252;DHT22;9760;50.944;5.304;2023-04-03T02:57:58;1.60;99.90
19252;DHT22;9760;50.944;5.304;2023-04-03T03:00:24;1.70;99.90
19252;DHT22;9760;50.944;5.304;2023-04-03T03:02:50;1.80;99.90
19252;DHT22;9760;50.944;5.304;2023-04-03T03:05:15;2.00;99.90
19252;DHT22;9760;50.944;5.304;2023-04-03T03:07:41;2.00;99.90
19252;DHT22;9760;50.944;5.304;2023-04-03T03:10:07;2.00;99.90
19252;DHT22;9760;50.944;5.304;2023-04-03T03:12:32;2.00;99.90
19252;DHT22;9760;50.944;5.304;2023-04-03T03:14:58;2.00;99.90
19252;DHT22;9760;50.944;5.304;2023-04-03T03:17:24;2.00;99.90
19252;DHT22;9760;50.944;5.304;2023-04-03T03:19:49;1.90;99.90
19252;DHT22;9760;50.944;5.304;2023-04-03T03:22:16;1.90;99.90
19252;DHT22;9760;50.944;5.304;2023-04-03T03:24:42;1.90;99.90
19252;DHT22;9760;50.944;5.304;2023-04-03T03:27:07;1.80;99.90
19252;DHT22;9760;50.944;5.304;2023-04-03T03:29:33;1.80;99.90
19252;DHT22;9760;50.944;5.304;2023-04-03T03:31:58;1.80;99.90
19252;DHT22;9760;50.944;5.304;2023-04-03T03:34:24;1.80;99.90
19252;DHT22;9760;50.944;5.304;2023-04-03T03:36:50;1.80;99.90
19252;DHT22;9760;50.944;5.304;2023-04-03T03:39:16;1.70;99.90
19252;DHT22;9760;50.944;5.304;2023-04-03T03:41:41;1.70;99.90
19252;DHT22;9760;50.944;5.304;2023-04-03T03:44:07;1.70;99.90
19252;DHT22;9760;50.944;5.304;2023-04-03T03:46:32;1.70;99.90
19252;DHT22;9760;50.944;5.304;2023-04-03T03:48:58;1.50;99.90
19252;DHT22;9760;50.944;5.304;2023-04-03T03:51:24;1.40;99.90
19252;DHT22;9760;50.944;5.304;2023-04-03T03:53:50;1.50;99.90
19252;DHT22;9760;50.944;5.304;2023-04-03T03:56:16;1.40;99.90
19252;DHT22;9760;50.944;5.304;2023-04-03T03:58:41;1.40;99.90
19252;DHT22;9760;50.944;5.304;2023-04-03T04:01:07;1.40;99.90
19252;DHT22;9760;50.944;5.304;2023-04-03T04:03:33;1.50;99.90
19252;DHT22;9760;50.944;5.304;2023-04-03T04:05:58;1.60;99.90
19252;DHT22;9760;50.944;5.304;2023-04-03T04:08:24;1.60;99.90
19252;DHT22;9760;50.944;5.304;2023-04-03T04:10:50;1.70;99.90
19252;DHT22;9760;50.944;5.304;2023-04-03T04:13:16;1.70;99.90
19252;DHT22;9760;50.944;5.304;2023-04-03T04:15:42;1.70;99.90
19252;DHT22;9760;50.944;5.304;2023-04-03T04:18:08;1.70;99.90
19252;DHT22;9760;50.944;5.304;2023-04-03T04:20:33;1.70;99.90
19252;DHT22;9760;50.944;5.304;2023-04-03T04:22:59;1.70;99.90
19252;DHT22;9760;50.944;5.304;2023-04-03T04:25:25;1.60;99.90
19252;DHT22;9760;50.944;5.304;2023-04-03T04:27:50;1.70;99.90
19252;DHT22;9760;50.944;5.304;2023-04-03T04:30:16;1.70;99.90
19252;DHT22;9760;50.944;5.304;2023-04-03T04:32:42;1.70;99.90
19252;DHT22;9760;50.944;5.304;2023-04-03T04:35:08;1.70;99.90
19252;DHT22;9760;50.944;5.304;2023-04-03T04:37:33;1.80;99.90
19252;DHT22;9760;50.944;5.304;2023-04-03T04:39:59;1.80;99.90
19252;DHT22;9760;50.944;5.304;2023-04-03T04:42:25;1.90;99.90
19252;DHT22;9760;50.944;5.304;2023-04-03T04:44:50;1.80;99.90
19252;DHT22;9760;50.944;5.304;2023-04-03T04:47:16;1.80;99.90
19252;DHT22;9760;50.944;5.304;2023-04-03T04:49:41;1.70;99.90
19252;DHT22;9760;50.944;5.304;2023-04-03T04:52:07;1.70;99.90
19252;DHT22;9760;50.944;5.304;2023-04-03T04:54:33;1.60;99.90
19252;DHT22;9760;50.944;5.304;2023-04-03T04:56:58;1.60;99.90
19252;DHT22;9760;50.944;5.304;2023-04-03T04:59:24;1.60;99.90
19252;DHT22;9760;50.944;5.304;2023-04-03T05:01:50;1.60;99.90
19252;DHT22;9760;50.944;5.304;2023-04-03T05:04:16;1.70;99.90
19252;DHT22;9760;50.944;5.304;2023-04-03T05:06:42;1.60;99.90
19252;DHT22;9760;50.944;5.304;2023-04-03T05:09:08;1.60;99.90
19252;DHT22;9760;50.944;5.304;2023-04-03T05:11:35;1.60;99.90
19252;DHT22;9760;50.944;5.304;2023-04-03T05:14:01;1.60;99.90
19252;DHT22;9760;50.944;5.304;2023-04-03T05:16:27;1.60;99.90
19252;DHT22;9760;50.944;5.304;2023-04-03T05:18:52;1.60;99.90
19252;DHT22;9760;50.944;5.304;2023-04-03T05:21:18;1.70;99.90
19252;DHT22;9760;50.944;5.304;2023-04-03T05:23:44;1.70;99.90
19252;DHT22;9760;50.944;5.304;2023-04-03T05:26:10;1.70;99.90
19252;DHT22;9760;50.944;5.304;2023-04-03T05:28:35;1.70;99.90
19252;DHT22;9760;50.944;5.304;2023-04-03T05:31:02;1.70;99.90
19252;DHT22;9760;50.944;5.304;2023-04-03T05:33:27;1.70;99.90
19252;DHT22;9760;50.944;5.304;2023-04-03T05:35:54;1.70;99.90
19252;DHT22;9760;50.944;5.304;2023-04-03T05:38:20;1.70;99.90
19252;DHT22;9760;50.944;5.304;2023-04-03T05:40:46;1.70;99.90
19252;DHT22;9760;50.944;5.304;2023-04-03T05:43:11;1.80;99.90
19252;DHT22;9760;50.944;5.304;2023-04-03T05:45:37;1.80;99.90
19252;DHT22;9760;50.944;5.304;2023-04-03T05:48:03;1.80;99.90
19252;DHT22;9760;50.944;5.304;2023-04-03T05:50:29;1.80;99.90
19252;DHT22;9760;50.944;5.304;2023-04-03T05:52:57;1.80;99.90
19252;DHT22;9760;50.944;5.304;2023-04-03T05:55:24;1.80;99.90
19252;DHT22;9760;50.944;5.304;2023-04-03T05:57:49;1.90;99.90
19252;DHT22;9760;50.944;5.304;2023-04-03T06:00:16;1.90;99.90
19252;DHT22;9760;50.944;5.304;2023-04-03T06:02:42;2.00;99.90
19252;DHT22;9760;50.944;5.304;2023-04-03T06:05:09;2.00;99.90
19252;DHT22;9760;50.944;5.304;2023-04-03T06:07:36;2.10;99.90
19252;DHT22;9760;50.944;5.304;2023-04-03T06:10:03;2.20;99.90
19252;DHT22;9760;50.944;5.304;2023-04-03T06:12:28;2.20;99.90
19252;DHT22;9760;50.944;5.304;2023-04-03T06:14:55;2.20;99.90
19252;DHT22;9760;50.944;5.304;2023-04-03T06:17:21;2.20;99.90
19252;DHT22;9760;50.944;5.304;2023-04-03T06:19:46;2.40;99.90
19252;DHT22;9760;50.944;5.304;2023-04-03T06:22:13;2.40;99.90
19252;DHT22;9760;50.944;5.304;2023-04-03T06:24:38;2.50;99.90
19252;DHT22;9760;50.944;5.304;2023-04-03T06:27:04;2.60;99.90
19252;DHT22;9760;50.944;5.304;2023-04-03T06:29:30;2.70;99.90
19252;DHT22;9760;50.944;5.304;2023-04-03T06:31:56;2.70;99.90
19252;DHT22;9760;50.944;5.304;2023-04-03T06:34:22;2.80;99.90
19252;DHT22;9760;50.944;5.304;2023-04-03T06:36:48;2.80;99.90
19252;DHT22;9760;50.944;5.304;2023-04-03T06:39:19;2.80;99.90
19252;DHT22;9760;50.944;5.304;2023-04-03T06:41:49;2.90;99.90
19252;DHT22;9760;50.944;5.304;2023-04-03T06:44:15;2.80;99.90
19252;DHT22;9760;50.944;5.304;2023-04-03T06:46:42;2.90;99.90
19252;DHT22;9760;50.944;5.304;2023-04-03T06:49:08;2.90;99.90
19252;DHT22;9760;50.944;5.304;2023-04-03T06:51:34;3.00;99.90
19252;DHT22;9760;50.944;5.304;2023-04-03T06:54:01;3.20;99.90
19252;DHT22;9760;50.944;5.304;2023-04-03T06:56:27;3.20;99.90
19252;DHT22;9760;50.944;5.304;2023-04-03T06:58:55;3.30;99.90
19252;DHT22;9760;50.944;5.304;2023-04-03T07:01:24;3.40;99.90
19252;DHT22;9760;50.944;5.304;2023-04-03T07:03:50;3.40;99.90
19252;DHT22;9760;50.944;5.304;2023-04-03T07:06:17;3.40;99.90
19252;DHT22;9760;50.944;5.304;2023-04-03T07:08:43;3.50;99.90
19252;DHT22;9760;50.944;5.304;2023-04-03T07:11:10;3.60;99.90
19252;DHT22;9760;50.944;5.304;2023-04-03T07:13:37;3.70;99.90
19252;DHT22;9760;50.944;5.304;2023-04-03T07:16:03;3.80;99.90
19252;DHT22;9760;50.944;5.304;2023-04-03T07:18:32;3.90;99.90
19252;DHT22;9760;50.944;5.304;2023-04-03T07:20:57;4.00;99.90
19252;DHT22;9760;50.944;5.304;2023-04-03T07:23:24;4.00;99.90
19252;DHT22;9760;50.944;5.304;2023-04-03T07:25:51;4.10;99.90
19252;DHT22;9760;50.944;5.304;2023-04-03T07:28:18;4.20;99.90
19252;DHT22;9760;50.944;5.304;2023-04-03T07:30:52;4.30;99.90
19252;DHT22;9760;50.944;5.304;2023-04-03T07:33:20;4.40;99.90
19252;DHT22;9760;50.944;5.304;2023-04-03T07:35:46;4.50;99.90
19252;DHT22;9760;50.944;5.304;2023-04-03T07:38:12;4.60;99.90
19252;DHT22;9760;50.944;5.304;2023-04-03T07:40:38;4.60;99.90
19252;DHT22;9760;50.944;5.304;2023-04-03T07:43:04;4.80;99.90
19252;DHT22;9760;50.944;5.304;2023-04-03T07:45:31;4.80;99.90
19252;DHT22;9760;50.944;5.304;2023-04-03T07:47:57;4.90;99.90
19252;DHT22;9760;50.944;5.304;2023-04-03T07:50:23;4.90;99.90
19252;DHT22;9760;50.944;5.304;2023-04-03T07:52:48;4.90;99.90
19252;DHT22;9760;50.944;5.304;2023-04-03T07:55:16;4.90;99.90
19252;DHT22;9760;50.944;5.304;2023-04-03T07:57:42;5.00;99.90
19252;DHT22;9760;50.944;5.304;2023-04-03T08:00:08;5.10;99.90
19252;DHT22;9760;50.944;5.304;2023-04-03T08:02:34;5.20;99.90
19252;DHT22;9760;50.944;5.304;2023-04-03T08:05:00;5.30;99.90
19252;DHT22;9760;50.944;5.304;2023-04-03T08:07:26;5.40;99.90
19252;DHT22;9760;50.944;5.304;2023-04-03T08:09:52;5.70;99.90
19252;DHT22;9760;50.944;5.304;2023-04-03T08:12:17;5.70;99.90
19252;DHT22;9760;50.944;5.304;2023-04-03T08:14:43;5.80;99.90
19252;DHT22;9760;50.944;5.304;2023-04-03T08:17:09;5.80;99.90
19252;DHT22;9760;50.944;5.304;2023-04-03T08:19:37;5.70;99.90
19252;DHT22;9760;50.944;5.304;2023-04-03T08:22:03;5.70;99.90
19252;DHT22;9760;50.944;5.304;2023-04-03T08:24:30;6.00;99.90
19252;DHT22;9760;50.944;5.304;2023-04-03T08:26:56;6.10;99.90
19252;DHT22;9760;50.944;5.304;2023-04-03T08:29:23;6.20;99.90
19252;DHT22;9760;50.944;5.304;2023-04-03T08:31:49;6.30;99.90
19252;DHT22;9760;50.944;5.304;2023-04-03T08:34:15;6.50;99.90
19252;DHT22;9760;50.944;5.304;2023-04-03T08:36:42;6.40;99.90
19252;DHT22;9760;50.944;5.304;2023-04-03T08:39:07;6.40;99.90
19252;DHT22;9760;50.944;5.304;2023-04-03T08:41:38;6.40;99.90
19252;DHT22;9760;50.944;5.304;2023-04-03T08:49:49;6.80;99.90
19252;DHT22;9760;50.944;5.304;2023-04-03T08:52:19;7.00;99.90
19252;DHT22;9760;50.944;5.304;2023-04-03T08:54:52;7.00;99.90
19252;DHT22;9760;50.944;5.304;2023-04-03T08:57:45;7.20;99.90
19252;DHT22;9760;50.944;5.304;2023-04-03T09:00:19;7.30;99.90
19252;DHT22;9760;50.944;5.304;2023-04-03T09:02:53;7.30;99.90
19252;DHT22;9760;50.944;5.304;2023-04-03T09:05:24;7.20;99.90
19252;DHT22;9760;50.944;5.304;2023-04-03T09:08:12;7.10;99.90
19252;DHT22;9760;50.944;5.304;2023-04-03T09:10:40;7.10;99.90
19252;DHT22;9760;50.944;5.304;2023-04-03T09:21:57;7.80;99.90
19252;DHT22;9760;50.944;5.304;2023-04-03T09:24:25;7.80;99.90
19252;DHT22;9760;50.944;5.304;2023-04-03T09:29:21;8.00;99.90
19252;DHT22;9760;50.944;5.304;2023-04-03T09:31:56;8.10;99.90
19252;DHT22;9760;50.944;5.304;2023-04-03T09:34:28;8.20;99.90
19252;DHT22;9760;50.944;5.304;2023-04-03T09:36:58;8.40;99.90
19252;DHT22;9760;50.944;5.304;2023-04-03T09:39:27;8.20;99.90
19252;DHT22;9760;50.944;5.304;2023-04-03T09:42:05;8.20;99.90
19252;DHT22;9760;50.944;5.304;2023-04-03T09:44:37;8.20;99.90
19252;DHT22;9760;50.944;5.304;2023-04-03T09:47:27;8.30;99.90
19252;DHT22;9760;50.944;5.304;2023-04-03T09:52:38;8.40;99.90
19252;DHT22;9760;50.944;5.304;2023-04-03T09:57:46;8.30;99.90
19252;DHT22;9760;50.944;5.304;2023-04-03T10:00:25;8.30;99.90
19252;DHT22;9760;50.944;5.304;2023-04-03T10:02:58;8.40;99.90
19252;DHT22;9760;50.944;5.304;2023-04-03T10:05:42;8.40;99.90
19252;DHT22;9760;50.944;5.304;2023-04-03T10:10:45;8.70;99.90
19252;DHT22;9760;50.944;5.304;2023-04-03T10:13:20;8.80;99.90
19252;DHT22;9760;50.944;5.304;2023-04-03T10:16:03;8.90;99.90
19252;DHT22;9760;50.944;5.304;2023-04-03T10:18:56;9.10;99.90
19252;DHT22;9760;50.944;5.304;2023-04-03T10:21:43;9.40;99.90
19252;DHT22;9760;50.944;5.304;2023-04-03T10:27:15;9.30;99.90
19252;DHT22;9760;50.944;5.304;2023-04-03T10:30:20;9.50;99.90
19252;DHT22;9760;50.944;5.304;2023-04-03T10:33:08;9.80;99.90
19252;DHT22;9760;50.944;5.304;2023-04-03T10:38:47;11.50;99.90
19252;DHT22;9760;50.944;5.304;2023-04-03T10:46:50;13.10;99.90
19252;DHT22;9760;50.944;5.304;2023-04-03T10:49:38;12.40;99.90
19252;DHT22;9760;50.944;5.304;2023-04-03T10:57:36;13.20;99.90
19252;DHT22;9760;50.944;5.304;2023-04-03T11:00:14;13.90;99.90
19252;DHT22;9760;50.944;5.304;2023-04-03T11:02:51;13.90;99.90
19252;DHT22;9760;50.944;5.304;2023-04-03T11:08:45;14.20;99.90
19252;DHT22;9760;50.944;5.304;2023-04-03T11:11:08;14.40;98.50
19252;DHT22;9760;50.944;5.304;2023-04-03T11:13:49;14.30;96.80
19252;DHT22;9760;50.944;5.304;2023-04-03T11:16:21;14.40;96.90
19252;DHT22;9760;50.944;5.304;2023-04-03T11:22:15;14.30;96.50
19252;DHT22;9760;50.944;5.304;2023-04-03T11:24:33;14.10;97.00
19252;DHT22;9760;50.944;5.304;2023-04-03T11:27:00;14.00;95.90
19252;DHT22;9760;50.944;5.304;2023-04-03T11:29:36;13.50;94.80
19252;DHT22;9760;50.944;5.304;2023-04-03T11:34:49;12.00;96.40
19252;DHT22;9760;50.944;5.304;2023-04-03T11:39:50;12.70;95.10
19252;DHT22;9760;50.944;5.304;2023-04-03T11:44:48;12.80;95.70
19252;DHT22;9760;50.944;5.304;2023-04-03T11:47:44;12.20;95.60
19252;DHT22;9760;50.944;5.304;2023-04-03T11:50:46;11.10;96.10
19252;DHT22;9760;50.944;5.304;2023-04-03T11:58:19;9.80;96.60
19252;DHT22;9760;50.944;5.304;2023-04-03T12:05:55;9.70;98.60
19252;DHT22;9760;50.944;5.304;2023-04-03T12:35:51;9.70;99.90
19252;DHT22;9760;50.944;5.304;2023-04-03T12:37:57;9.80;99.90
19252;DHT22;9760;50.944;5.304;2023-04-03T12:48:17;9.80;99.90
19252;DHT22;9760;50.944;5.304;2023-04-03T12:50:45;9.70;99.90
19252;DHT22;9760;50.944;5.304;2023-04-03T12:53:12;9.80;99.90
19252;DHT22;9760;50.944;5.304;2023-04-03T12:55:38;9.80;99.90
19252;DHT22;9760;50.944;5.304;2023-04-03T13:01:10;9.90;99.90
19252;DHT22;9760;50.944;5.304;2023-04-03T13:03:39;10.00;99.90
19252;DHT22;9760;50.944;5.304;2023-04-03T13:06:05;10.10;99.30
19252;DHT22;9760;50.944;5.304;2023-04-03T13:08:32;9.90;99.70
19252;DHT22;9760;50.944;5.304;2023-04-03T13:11:09;10.00;99.90
19252;DHT22;9760;50.944;5.304;2023-04-03T13:13:37;10.10;99.90
19252;DHT22;9760;50.944;5.304;2023-04-03T13:16:11;10.10;99.90
19252;DHT22;9760;50.944;5.304;2023-04-03T13:18:37;10.00;99.90
19252;DHT22;9760;50.944;5.304;2023-04-03T13:21:08;10.00;99.90
19252;DHT22;9760;50.944;5.304;2023-04-03T13:23:40;10.00;99.90
19252;DHT22;9760;50.944;5.304;2023-04-03T13:26:08;10.10;99.90
19252;DHT22;9760;50.944;5.304;2023-04-03T13:28:35;10.00;99.30
19252;DHT22;9760;50.944;5.304;2023-04-03T13:34:03;10.00;98.90
19252;DHT22;9760;50.944;5.304;2023-04-03T13:37:18;10.10;99.90
19252;DHT22;9760;50.944;5.304;2023-04-03T13:39:30;10.10;99.90
19252;DHT22;9760;50.944;5.304;2023-04-03T13:41:59;10.00;99.90
19252;DHT22;9760;50.944;5.304;2023-04-03T13:44:36;10.10;99.90
19252;DHT22;9760;50.944;5.304;2023-04-03T13:49:34;10.10;99.90
19252;DHT22;9760;50.944;5.304;2023-04-03T13:52:25;10.20;99.90
19252;DHT22;9760;50.944;5.304;2023-04-03T13:54:53;10.10;99.90
19252;DHT22;9760;50.944;5.304;2023-04-03T13:57:19;10.10;99.90
19252;DHT22;9760;50.944;5.304;2023-04-03T13:59:46;10.30;99.90
19252;DHT22;9760;50.944;5.304;2023-04-03T14:04:50;10.30;99.90
19252;DHT22;9760;50.944;5.304;2023-04-03T14:07:16;10.20;99.90
19252;DHT22;9760;50.944;5.304;2023-04-03T14:09:43;10.30;99.90
19252;DHT22;9760;50.944;5.304;2023-04-03T14:12:18;10.30;99.90
19252;DHT22;9760;50.944;5.304;2023-04-03T14:14:45;10.30;99.90
19252;DHT22;9760;50.944;5.304;2023-04-03T14:17:20;10.30;99.90
19252;DHT22;9760;50.944;5.304;2023-04-03T14:19:48;10.40;99.90
19252;DHT22;9760;50.944;5.304;2023-04-03T14:24:45;10.20;99.90
19252;DHT22;9760;50.944;5.304;2023-04-03T14:27:50;10.20;99.90
19252;DHT22;9760;50.944;5.304;2023-04-03T14:30:20;10.30;99.90
19252;DHT22;9760;50.944;5.304;2023-04-03T14:32:47;10.20;99.90
19252;DHT22;9760;50.944;5.304;2023-04-03T14:35:14;10.20;99.90
19252;DHT22;9760;50.944;5.304;2023-04-03T14:37:39;10.30;99.90
19252;DHT22;9760;50.944;5.304;2023-04-03T14:40:08;10.40;99.90
19252;DHT22;9760;50.944;5.304;2023-04-03T14:42:36;10.50;99.90
19252;DHT22;9760;50.944;5.304;2023-04-03T14:45:05;10.40;99.90
19252;DHT22;9760;50.944;5.304;2023-04-03T14:47:31;10.40;99.90
19252;DHT22;9760;50.944;5.304;2023-04-03T14:49:59;10.30;99.90
19252;DHT22;9760;50.944;5.304;2023-04-03T14:52:32;10.40;99.90
19252;DHT22;9760;50.944;5.304;2023-04-03T14:54:59;10.30;99.90
19252;DHT22;9760;50.944;5.304;2023-04-03T14:57:27;10.30;99.90
19252;DHT22;9760;50.944;5.304;2023-04-03T14:59:53;10.30;99.90
19252;DHT22;9760;50.944;5.304;2023-04-03T15:02:34;10.30;99.90
19252;DHT22;9760;50.944;5.304;2023-04-03T15:05:01;10.40;99.90
19252;DHT22;9760;50.944;5.304;2023-04-03T15:07:31;10.40;99.90
19252;DHT22;9760;50.944;5.304;2023-04-03T15:09:59;10.40;99.90
19252;DHT22;9760;50.944;5.304;2023-04-03T15:12:26;10.50;99.90
19252;DHT22;9760;50.944;5.304;2023-04-03T15:14:52;10.50;99.90
19252;DHT22;9760;50.944;5.304;2023-04-03T15:17:20;10.40;99.90
19252;DHT22;9760;50.944;5.304;2023-04-03T15:19:47;10.50;99.90
19252;DHT22;9760;50.944;5.304;2023-04-03T15:22:18;10.60;99.90
19252;DHT22;9760;50.944;5.304;2023-04-03T15:24:44;10.60;99.90
19252;DHT22;9760;50.944;5.304;2023-04-03T15:27:11;10.50;99.90
19252;DHT22;9760;50.944;5.304;2023-04-03T15:29:39;10.40;99.90
19252;DHT22;9760;50.944;5.304;2023-04-03T15:32:06;10.40;99.90
19252;DHT22;9760;50.944;5.304;2023-04-03T15:34:32;10.30;99.90
19252;DHT22;9760;50.944;5.304;2023-04-03T15:36:57;10.30;99.90
19252;DHT22;9760;50.944;5.304;2023-04-03T15:39:25;10.30;99.90
19252;DHT22;9760;50.944;5.304;2023-04-03T15:41:51;10.30;99.90
19252;DHT22;9760;50.944;5.304;2023-04-03T15:44:17;10.30;99.90
19252;DHT22;9760;50.944;5.304;2023-04-03T15:46:44;10.40;99.90
19252;DHT22;9760;50.944;5.304;2023-04-03T15:49:11;10.40;99.90
19252;DHT22;9760;50.944;5.304;2023-04-03T15:51:37;10.50;99.90
19252;DHT22;9760;50.944;5.304;2023-04-03T15:54:03;10.40;99.90
19252;DHT22;9760;50.944;5.304;2023-04-03T15:56:28;10.50;99.90
19252;DHT22;9760;50.944;5.304;2023-04-03T15:58:54;10.50;99.90
19252;DHT22;9760;50.944;5.304;2023-04-03T16:01:20;10.60;99.90
19252;DHT22;9760;50.944;5.304;2023-04-03T16:03:46;10.60;99.90
19252;DHT22;9760;50.944;5.304;2023-04-03T16:06:16;11.10;99.90
19252;DHT22;9760;50.944;5.304;2023-04-03T16:08:42;12.00;99.90
19252;DHT22;9760;50.944;5.304;2023-04-03T16:11:08;13.60;99.90
19252;DHT22;9760;50.944;5.304;2023-04-03T16:13:34;14.60;99.90
19252;DHT22;9760;50.944;5.304;2023-04-03T16:16:00;14.10;98.80
19252;DHT22;9760;50.944;5.304;2023-04-03T16:18:27;15.50;99.90
19252;DHT22;9760;50.944;5.304;2023-04-03T16:20:53;16.50;98.60
19252;DHT22;9760;50.944;5.304;2023-04-03T16:23:19;17.10;98.60
19252;DHT22;9760;50.944;5.304;2023-04-03T16:25:44;17.10;99.30
19252;DHT22;9760;50.944;5.304;2023-04-03T16:28:13;17.50;97.60
19252;DHT22;9760;50.944;5.304;2023-04-03T16:30:40;17.20;99.90
19252;DHT22;9760;50.944;5.304;2023-04-03T16:33:06;16.90;97.50
19252;DHT22;9760;50.944;5.304;2023-04-03T16:35:32;17.50;98.20
19252;DHT22;9760;50.944;5.304;2023-04-03T16:37:58;17.90;98.60
19252;DHT22;9760;50.944;5.304;2023-04-03T16:40:23;18.20;97.70
19252;DHT22;9760;50.944;5.304;2023-04-03T16:42:49;18.60;97.10
19252;DHT22;9760;50.944;5.304;2023-04-03T16:45:15;19.10;96.90
19252;DHT22;9760;50.944;5.304;2023-04-03T16:47:41;18.80;94.70
19252;DHT22;9760;50.944;5.304;2023-04-03T16:50:07;19.10;96.20
19252;DHT22;9760;50.944;5.304;2023-04-03T16:52:33;16.50;92.70
19252;DHT22;9760;50.944;5.304;2023-04-03T16:54:58;16.70;94.00
19252;DHT22;9760;50.944;5.304;2023-04-03T16:57:24;16.20;93.10
19252;DHT22;9760;50.944;5.304;2023-04-03T16:59:50;17.20;94.70
19252;DHT22;9760;50.944;5.304;2023-04-03T17:02:16;17.70;94.10
19252;DHT22;9760;50.944;5.304;2023-04-03T17:04:42;16.60;94.90
19252;DHT22;9760;50.944;5.304;2023-04-03T17:07:08;17.20;95.90
19252;DHT22;9760;50.944;5.304;2023-04-03T17:09:34;17.50;94.20
19252;DHT22;9760;50.944;5.304;2023-04-03T17:12:00;18.00;94.40
19252;DHT22;9760;50.944;5.304;2023-04-03T17:14:25;18.30;95.20
19252;DHT22;9760;50.944;5.304;2023-04-03T17:16:51;18.30;94.10
19252;DHT22;9760;50.944;5.304;2023-04-03T17:19:17;15.70;92.00
19252;DHT22;9760;50.944;5.304;2023-04-03T17:21:43;13.60;93.00
19252;DHT22;9760;50.944;5.304;2023-04-03T17:24:11;12.10;93.60
19252;DHT22;9760;50.944;5.304;2023-04-03T17:26:39;11.60;97.50
19252;DHT22;9760;50.944;5.304;2023-04-03T17:29:05;11.10;98.10
19252;DHT22;9760;50.944;5.304;2023-04-03T17:31:31;10.90;97.50
19252;DHT22;9760;50.944;5.304;2023-04-03T17:33:57;10.60;98.20
19252;DHT22;9760;50.944;5.304;2023-04-03T17:36:27;10.50;98.70
19252;DHT22;9760;50.944;5.304;2023-04-03T17:38:53;10.30;99.00
19252;DHT22;9760;50.944;5.304;2023-04-03T17:41:18;10.10;98.10
19252;DHT22;9760;50.944;5.304;2023-04-03T17:43:45;10.10;99.90
19252;DHT22;9760;50.944;5.304;2023-04-03T17:46:10;9.90;99.90
19252;DHT22;9760;50.944;5.304;2023-04-03T17:48:38;9.80;99.90
19252;DHT22;9760;50.944;5.304;2023-04-03T17:51:14;9.70;99.50
19252;DHT22;9760;50.944;5.304;2023-04-03T17:53:41;9.60;99.90
19252;DHT22;9760;50.944;5.304;2023-04-03T17:56:08;9.40;99.90
19252;DHT22;9760;50.944;5.304;2023-04-03T17:58:34;9.40;99.90
19252;DHT22;9760;50.944;5.304;2023-04-03T18:01:08;9.30;99.90
19252;DHT22;9760;50.944;5.304;2023-04-03T18:03:34;9.30;99.90
19252;DHT22;9760;50.944;5.304;2023-04-03T18:06:02;9.20;99.90